Parvati — SVA7373 — position and weather

sailwx.info

Track history (hours):
 
Tides and Currents Weather Stations Pressure Air Temp Water Temp Dewpoint Dewpoint Depression Visibility Wind Speed Wind Dir Waves Ship Positions

Parvati

Last reported at 2017-Nov-04 12:45 UTC. Time now 2017-Dec-18 07:05 UTC.
Position N 37°56' E 023°41'.
Warning: this ship's position is 43 days out of date.

Length 40 m; draft 2.9 m.

Type: Pleasure craft. MMSI: 241499000.

Date/timePositionNaut miles runAvg speedWind from/ knotsBaromVisibWave heightAir tempDewpointWater temp
2017-Nov-04 12:45N 37°56' E 023°41'0 0.0
2017-Nov-04 12:30N 37°56' E 023°41'0 0.0
2017-Nov-04 12:00N 37°56' E 023°41'3 5.4
2017-Nov-04 11:31N 37°54' E 023°39'510.4
2017-Nov-04 11:00N 37°49' E 023°36'510.3
2017-Nov-04 10:30N 37°44' E 023°33'710.2
2017-Nov-04 09:47N 37°38' E 023°29'310.2
2017-Nov-04 09:29N 37°35' E 023°27'4 0.1
2017-Nov-03 00:52N 37°39' E 023°24'410.3
2017-Nov-03 00:30N 37°40' E 023°20'1210.1
2017-Nov-02 23:17N 37°50' E 023°11'310.1
2017-Nov-02 23:00N 37°52' E 023°08'510.5
2017-Nov-02 22:30N 37°54' E 023°02'  
Track history (hours):
 
Tides and Currents Weather Stations Pressure Air Temp Water Temp Dewpoint Dewpoint Depression Visibility Wind Speed Wind Dir Waves Ship Positions

Parvati

Last reported at 2017-Nov-04 12:45 UTC. Time now 2017-Dec-18 07:05 UTC.
Position N 37°56' E 023°41'.
Warning: this ship's position is 43 days out of date.

Length 40 m; draft 2.9 m.

Type: Pleasure craft. MMSI: 241499000.

Date/timePositionNaut miles runAvg speedWind from/ knotsBaromVisibWave heightAir tempDewpointWater temp
2017-Nov-04 12:45N 37°56' E 023°41'0 0.0
2017-Nov-04 12:30N 37°56' E 023°41'0 0.0
2017-Nov-04 12:00N 37°56' E 023°41'3 5.4
2017-Nov-04 11:31N 37°54' E 023°39'510.4
2017-Nov-04 11:00N 37°49' E 023°36'510.3
2017-Nov-04 10:30N 37°44' E 023°33'710.2
2017-Nov-04 09:47N 37°38' E 023°29'310.2
2017-Nov-04 09:29N 37°35' E 023°27'4 0.1
2017-Nov-03 00:52N 37°39' E 023°24'410.3
2017-Nov-03 00:30N 37°40' E 023°20'1210.1
2017-Nov-02 23:17N 37°50' E 023°11'310.1
2017-Nov-02 23:00N 37°52' E 023°08'510.5
2017-Nov-02 22:30N 37°54' E 023°02'  

Dump ship's entire track history